createdAt,value
2022-08-28T00:00:15.440Z,22.31
2022-08-28T00:02:13.802Z,22.36
2022-08-28T00:03:13.855Z,22.31
2022-08-28T00:04:13.901Z,22.39
2022-08-28T00:05:13.809Z,22.35
2022-08-28T00:06:13.793Z,22.35
2022-08-28T00:07:16.423Z,22.35
2022-08-28T00:08:14.045Z,22.39
2022-08-28T00:09:13.785Z,22.36
2022-08-28T00:10:15.220Z,22.35
2022-08-28T00:11:15.211Z,22.36
2022-08-28T00:12:13.783Z,22.35
2022-08-28T00:13:13.779Z,22.40
2022-08-28T00:14:13.783Z,22.43
2022-08-28T00:15:13.788Z,22.31
2022-08-28T00:16:13.866Z,22.36
2022-08-28T00:17:13.789Z,22.39
2022-08-28T00:18:14.050Z,22.33
2022-08-28T00:19:13.777Z,22.31
2022-08-28T00:20:13.773Z,22.35
2022-08-28T00:21:13.773Z,22.31
2022-08-28T00:22:13.787Z,22.30
2022-08-28T00:23:13.764Z,22.28
2022-08-28T00:24:13.773Z,22.20
2022-08-28T00:25:13.761Z,22.22
2022-08-28T00:26:13.764Z,22.21
2022-08-28T00:27:13.764Z,22.18
2022-08-28T00:28:23.415Z,22.27
2022-08-28T00:29:13.763Z,22.24
2022-08-28T00:30:13.758Z,22.20
2022-08-28T00:31:13.801Z,22.22
2022-08-28T00:32:13.765Z,22.18
2022-08-28T00:33:13.768Z,22.18
2022-08-28T00:35:36.653Z,22.18
2022-08-28T00:36:36.659Z,22.20
2022-08-28T00:37:36.663Z,22.24
2022-08-28T00:38:36.653Z,22.21
2022-08-28T00:39:36.662Z,22.21
2022-08-28T00:40:39.381Z,22.17
2022-08-28T00:41:36.792Z,22.21
2022-08-28T00:42:39.476Z,22.24
2022-08-28T00:43:36.649Z,22.21
2022-08-28T00:44:36.652Z,22.15
2022-08-28T00:45:39.797Z,22.17
2022-08-28T00:46:36.718Z,22.14
2022-08-28T00:48:31.234Z,22.14
2022-08-28T00:49:31.251Z,22.07
2022-08-28T00:50:31.227Z,22.05
2022-08-28T00:51:31.236Z,22.05
2022-08-28T00:52:31.233Z,22.12
2022-08-28T00:53:32.888Z,22.17
2022-08-28T00:54:31.243Z,22.10
2022-08-28T00:55:31.222Z,22.05
2022-08-28T00:56:31.228Z,22.10
2022-08-28T00:57:31.232Z,22.18
2022-08-28T00:58:31.227Z,22.02
2022-08-28T00:59:31.225Z,22.06
2022-08-28T01:00:31.223Z,22.06
2022-08-28T01:01:31.268Z,22.07
2022-08-28T01:02:31.255Z,22.07
2022-08-28T01:03:31.212Z,22.05
2022-08-28T01:04:31.228Z,22.10
2022-08-28T01:05:33.830Z,22.02
2022-08-28T01:06:31.225Z,22.15
2022-08-28T01:07:31.203Z,22.09
2022-08-28T01:08:31.214Z,22.02
2022-08-28T01:09:31.207Z,22.03
2022-08-28T01:10:31.205Z,22.06
2022-08-28T01:11:31.204Z,22.02
2022-08-28T01:12:31.204Z,22.06
2022-08-28T01:13:31.211Z,22.07
2022-08-28T01:14:31.192Z,22.05
2022-08-28T01:15:31.218Z,22.14
2022-08-28T01:16:32.993Z,22.07
2022-08-28T01:17:31.393Z,22.06
2022-08-28T01:18:31.188Z,22.06
2022-08-28T01:19:31.186Z,22.06
2022-08-28T01:20:31.185Z,22.06
2022-08-28T01:21:31.192Z,22.02
2022-08-28T01:22:31.196Z,22.09
2022-08-28T01:23:31.188Z,21.99
2022-08-28T01:24:31.192Z,22.03
2022-08-28T01:25:31.192Z,21.99
2022-08-28T01:26:31.181Z,22.00
2022-08-28T01:27:31.180Z,21.94
2022-08-28T01:28:31.176Z,22.03
2022-08-28T01:29:31.179Z,22.06
2022-08-28T01:30:31.184Z,22.06
2022-08-28T01:31:31.335Z,22.03
2022-08-28T01:32:31.172Z,22.06
2022-08-28T01:33:31.171Z,21.98
2022-08-28T01:34:31.188Z,21.99
2022-08-28T01:35:31.171Z,21.98
2022-08-28T01:36:31.160Z,22.02
2022-08-28T01:37:31.163Z,22.02
2022-08-28T01:38:31.163Z,21.98
2022-08-28T01:39:31.158Z,22.02
2022-08-28T01:40:31.234Z,22.00
2022-08-28T01:41:31.155Z,21.98
2022-08-28T01:42:31.166Z,22.03
2022-08-28T01:43:31.168Z,21.96
2022-08-28T01:44:31.158Z,21.94
2022-08-28T01:45:31.206Z,21.99
2022-08-28T01:46:31.291Z,21.94
2022-08-28T01:47:31.147Z,21.98
2022-08-28T01:48:31.147Z,21.99
2022-08-28T01:49:31.149Z,21.94
2022-08-28T01:50:31.147Z,21.92
2022-08-28T01:51:35.001Z,21.84
2022-08-28T01:52:31.144Z,21.91
2022-08-28T01:53:32.703Z,21.92
2022-08-28T01:54:31.151Z,21.83
2022-08-28T01:55:31.156Z,21.90
2022-08-28T01:56:31.138Z,21.94
2022-08-28T01:57:31.127Z,21.86
2022-08-28T01:58:33.012Z,21.90
2022-08-28T01:59:31.125Z,21.82
2022-08-28T02:00:31.129Z,21.91
2022-08-28T02:01:31.197Z,21.90
2022-08-28T02:02:31.115Z,21.90
2022-08-28T02:03:31.115Z,21.86
2022-08-28T02:04:31.765Z,21.82
2022-08-28T02:05:31.125Z,21.86
2022-08-28T02:06:31.126Z,21.88
2022-08-28T02:07:31.125Z,21.82
2022-08-28T02:08:31.110Z,21.90
2022-08-28T02:09:31.171Z,21.82
2022-08-28T02:10:31.108Z,21.84
2022-08-28T02:11:31.103Z,21.75
2022-08-28T02:12:31.106Z,21.83
2022-08-28T02:13:31.106Z,21.82
2022-08-28T02:14:31.140Z,21.82
2022-08-28T02:15:31.191Z,21.80
2022-08-28T02:16:31.097Z,21.84
2022-08-28T02:17:31.105Z,21.80
2022-08-28T02:18:31.100Z,21.72
2022-08-28T02:19:31.097Z,21.77
2022-08-28T02:20:31.099Z,21.72
2022-08-28T02:21:31.090Z,21.75
2022-08-28T02:22:31.084Z,21.74
2022-08-28T02:23:31.079Z,21.75
2022-08-28T02:24:31.083Z,21.74
2022-08-28T02:25:31.083Z,21.74
2022-08-28T02:26:31.079Z,21.71
2022-08-28T02:27:31.081Z,21.79
2022-08-28T02:28:31.072Z,21.74
2022-08-28T02:29:31.075Z,21.72
2022-08-28T02:30:31.076Z,21.67
2022-08-28T02:31:31.071Z,21.67
2022-08-28T02:32:31.072Z,21.64
2022-08-28T02:33:31.064Z,21.65
2022-08-28T02:34:31.079Z,21.65
2022-08-28T02:35:31.069Z,21.67
2022-08-28T02:36:31.064Z,21.65
2022-08-28T02:37:31.065Z,21.58
2022-08-28T02:38:31.065Z,21.65
2022-08-28T02:39:31.061Z,21.56
2022-08-28T02:40:31.143Z,21.54
2022-08-28T02:41:31.051Z,21.69
2022-08-28T02:42:31.060Z,21.59
2022-08-28T02:43:31.047Z,21.67
2022-08-28T02:44:31.046Z,21.58
2022-08-28T02:45:31.039Z,21.62
2022-08-28T02:46:31.102Z,21.62
2022-08-28T02:47:31.033Z,21.64
2022-08-28T02:48:31.036Z,21.61
2022-08-28T02:49:36.171Z,21.54
2022-08-28T02:50:31.034Z,21.59
2022-08-28T02:51:31.035Z,21.54
2022-08-28T02:52:31.038Z,21.59
2022-08-28T02:53:31.024Z,21.54
2022-08-28T02:54:31.029Z,21.54
2022-08-28T02:55:34.076Z,21.50
2022-08-28T02:56:31.041Z,21.54
2022-08-28T02:57:31.014Z,21.52
2022-08-28T02:58:31.010Z,21.56
2022-08-28T02:59:31.012Z,21.56
2022-08-28T03:00:31.011Z,21.46
2022-08-28T03:01:31.068Z,21.54
2022-08-28T03:02:31.074Z,21.37
2022-08-28T03:03:31.013Z,21.34
2022-08-28T03:04:31.000Z,21.40
2022-08-28T03:05:31.006Z,21.43
2022-08-28T03:06:31.003Z,21.37
2022-08-28T03:08:13.279Z,21.42
2022-08-28T03:09:13.068Z,21.46
2022-08-28T03:10:13.071Z,21.44
2022-08-28T03:11:13.069Z,21.42
2022-08-28T03:12:13.059Z,21.38
2022-08-28T03:13:26.791Z,21.38
2022-08-28T03:14:13.063Z,21.42
2022-08-28T03:15:13.051Z,21.40
2022-08-28T03:16:13.124Z,21.37
2022-08-28T03:17:13.044Z,21.40
2022-08-28T03:18:13.199Z,21.38
2022-08-28T03:19:13.046Z,21.37
2022-08-28T03:20:13.035Z,21.32
2022-08-28T03:21:13.039Z,21.40
2022-08-28T03:22:13.033Z,21.34
2022-08-28T03:23:13.032Z,21.27
2022-08-28T03:24:15.149Z,21.35
2022-08-28T03:25:13.029Z,21.28
2022-08-28T03:26:13.037Z,21.29
2022-08-28T03:27:13.022Z,21.24
2022-08-28T03:28:13.175Z,21.31
2022-08-28T03:29:13.026Z,21.25
2022-08-28T03:30:13.023Z,21.28
2022-08-28T03:31:13.043Z,21.25
2022-08-28T03:32:13.023Z,21.34
2022-08-28T03:33:13.007Z,21.25
2022-08-28T03:34:13.027Z,21.35
2022-08-28T03:35:13.004Z,21.38
2022-08-28T03:36:13.005Z,21.28
2022-08-28T03:37:13.002Z,21.32
2022-08-28T03:38:13.147Z,21.31
2022-08-28T03:39:13.000Z,21.31
2022-08-28T03:40:13.116Z,21.32
2022-08-28T03:41:12.994Z,21.27
2022-08-28T03:42:12.991Z,21.25
2022-08-28T03:43:12.990Z,21.28
2022-08-28T03:44:12.991Z,21.17
2022-08-28T03:45:12.994Z,21.25
2022-08-28T03:46:13.001Z,21.27
2022-08-28T03:47:12.980Z,21.22
2022-08-28T03:48:13.129Z,21.25
2022-08-28T03:49:12.993Z,21.28
2022-08-28T03:50:12.985Z,21.14
2022-08-28T03:51:12.980Z,21.16
2022-08-28T03:52:12.970Z,21.14
2022-08-28T03:53:12.974Z,21.14
2022-08-28T03:54:12.970Z,21.16
2022-08-28T03:55:12.957Z,21.16
2022-08-28T03:56:12.959Z,21.13
2022-08-28T03:57:12.977Z,21.12
2022-08-28T03:58:18.911Z,21.13
2022-08-28T03:59:12.943Z,21.09
2022-08-28T04:00:12.947Z,21.13
2022-08-28T04:01:12.998Z,21.21
2022-08-28T04:02:12.942Z,21.03
2022-08-28T04:03:13.006Z,21.12
2022-08-28T04:04:12.942Z,21.04
2022-08-28T04:05:12.948Z,21.14
2022-08-28T04:06:12.934Z,21.16
2022-08-28T04:07:12.936Z,21.12
2022-08-28T04:08:13.034Z,21.19
2022-08-28T04:09:12.922Z,21.14
2022-08-28T04:10:12.933Z,21.17
2022-08-28T04:11:12.925Z,21.12
2022-08-28T04:12:12.940Z,21.16
2022-08-28T04:13:12.911Z,21.19
2022-08-28T04:14:12.910Z,21.09
2022-08-28T04:15:12.909Z,21.13
2022-08-28T04:16:12.951Z,21.06
2022-08-28T04:17:12.945Z,21.03
2022-08-28T04:18:13.178Z,21.12
2022-08-28T04:19:12.902Z,21.10
2022-08-28T04:20:12.918Z,20.97
2022-08-28T04:21:12.901Z,21.01
2022-08-28T04:22:12.888Z,21.03
2022-08-28T04:23:12.890Z,20.92
2022-08-28T04:24:12.894Z,20.95
2022-08-28T04:25:12.889Z,20.88
2022-08-28T04:26:12.878Z,20.85
2022-08-28T04:27:12.888Z,20.88
2022-08-28T04:28:12.972Z,20.87
2022-08-28T04:29:12.890Z,20.80
2022-08-28T04:30:12.875Z,20.89
2022-08-28T04:31:12.876Z,20.80
2022-08-28T04:32:12.901Z,20.82
2022-08-28T04:33:12.868Z,20.77
2022-08-28T04:34:12.866Z,20.77
2022-08-28T04:35:12.861Z,20.85
2022-08-28T04:36:12.855Z,20.82
2022-08-28T04:37:12.853Z,20.76
2022-08-28T04:38:13.041Z,20.77
2022-08-28T04:39:12.859Z,20.77
2022-08-28T04:40:12.983Z,20.74
2022-08-28T04:41:12.842Z,20.79
2022-08-28T04:42:12.848Z,20.77
2022-08-28T04:43:12.874Z,20.79
2022-08-28T04:44:12.843Z,20.79
2022-08-28T04:45:12.838Z,20.79
2022-08-28T04:46:12.912Z,20.77
2022-08-28T04:47:12.826Z,20.76
2022-08-28T04:48:13.824Z,20.72
2022-08-28T04:49:12.821Z,20.67
2022-08-28T04:50:12.818Z,20.67
2022-08-28T04:51:12.819Z,20.72
2022-08-28T04:52:12.811Z,20.73
2022-08-28T04:53:12.808Z,20.72
2022-08-28T04:54:12.813Z,20.61
2022-08-28T04:55:12.799Z,20.66
2022-08-28T04:56:12.803Z,20.62
2022-08-28T04:57:12.800Z,20.66
2022-08-28T04:58:12.934Z,20.61
2022-08-28T04:59:12.798Z,20.57
2022-08-28T05:00:12.787Z,20.62
2022-08-28T05:01:12.903Z,20.64
2022-08-28T05:02:12.901Z,20.57
2022-08-28T05:03:12.789Z,20.57
2022-08-28T05:04:12.780Z,20.50
2022-08-28T05:05:12.778Z,20.58
2022-08-28T05:06:12.780Z,20.55
2022-08-28T05:07:12.772Z,20.51
2022-08-28T05:08:13.030Z,20.55
2022-08-28T05:09:12.764Z,20.58
2022-08-28T05:10:12.772Z,20.51
2022-08-28T05:11:12.779Z,20.51
2022-08-28T05:12:12.760Z,20.54
2022-08-28T05:13:12.759Z,20.58
2022-08-28T05:14:16.136Z,20.43
2022-08-28T05:15:12.760Z,20.55
2022-08-28T05:16:12.806Z,20.47
2022-08-28T05:17:12.738Z,20.48
2022-08-28T05:18:12.920Z,20.47
2022-08-28T05:19:12.749Z,20.43
2022-08-28T05:20:12.737Z,20.54
2022-08-28T05:21:14.549Z,20.42
2022-08-28T05:22:12.731Z,20.55
2022-08-28T05:23:12.736Z,20.55
2022-08-28T05:24:12.724Z,20.50
2022-08-28T05:25:12.732Z,20.48
2022-08-28T05:26:12.711Z,20.50
2022-08-28T05:27:12.719Z,20.54
2022-08-28T05:28:12.904Z,20.39
2022-08-28T05:29:12.704Z,20.39
2022-08-28T05:30:12.718Z,20.47
2022-08-28T05:31:12.752Z,20.36
2022-08-28T05:32:12.699Z,20.35
2022-08-28T05:33:12.703Z,20.32
2022-08-28T05:34:12.695Z,20.36
2022-08-28T05:35:12.704Z,20.38
2022-08-28T05:36:12.690Z,20.36
2022-08-28T05:37:15.477Z,20.32
2022-08-28T05:38:12.887Z,20.38
2022-08-28T05:39:12.682Z,20.36
2022-08-28T05:40:12.729Z,20.36
2022-08-28T05:41:12.678Z,20.39
2022-08-28T05:42:12.673Z,20.38
2022-08-28T05:43:12.664Z,20.41
2022-08-28T05:44:12.663Z,20.35
2022-08-28T05:45:12.667Z,20.39
2022-08-28T05:46:12.681Z,20.39
2022-08-28T05:47:12.663Z,20.32
2022-08-28T05:48:12.875Z,20.29
2022-08-28T05:49:12.654Z,20.36
2022-08-28T05:50:12.655Z,20.35
2022-08-28T05:51:12.655Z,20.35
2022-08-28T05:52:12.650Z,20.29
2022-08-28T05:53:12.642Z,20.39
2022-08-28T05:54:12.637Z,20.41
2022-08-28T05:55:12.640Z,20.50
2022-08-28T05:56:12.643Z,20.55
2022-08-28T05:57:12.638Z,20.57
2022-08-28T05:58:12.771Z,20.57
2022-08-28T05:59:12.625Z,20.64
2022-08-28T06:00:12.623Z,20.69
2022-08-28T06:01:12.613Z,20.67
2022-08-28T06:02:12.677Z,20.69
2022-08-28T06:03:12.617Z,20.80
2022-08-28T06:04:12.636Z,20.77
2022-08-28T06:05:13.104Z,20.84
2022-08-28T06:06:12.607Z,20.77
2022-08-28T06:07:12.614Z,20.77
2022-08-28T06:08:12.752Z,20.91
2022-08-28T06:09:12.609Z,20.85
2022-08-28T06:10:12.602Z,20.92
2022-08-28T06:11:12.603Z,20.89
2022-08-28T06:12:12.609Z,20.97
2022-08-28T06:13:12.612Z,21.06
2022-08-28T06:14:12.621Z,21.03
2022-08-28T06:15:12.646Z,21.07
2022-08-28T06:16:12.653Z,21.04
2022-08-28T06:17:12.599Z,21.17
2022-08-28T06:18:12.729Z,21.13
2022-08-28T06:19:12.593Z,21.13
2022-08-28T06:20:12.604Z,21.16
2022-08-28T06:21:12.588Z,21.22
2022-08-28T06:22:12.577Z,21.25
2022-08-28T06:23:12.585Z,21.22
2022-08-28T06:24:12.582Z,21.27
2022-08-28T06:25:12.583Z,21.27
2022-08-28T06:26:12.574Z,21.40
2022-08-28T06:27:12.579Z,21.44
2022-08-28T06:28:12.745Z,21.38
2022-08-28T06:29:12.587Z,21.34
2022-08-28T06:30:12.581Z,21.44
2022-08-28T06:31:24.767Z,21.38
2022-08-28T06:32:12.638Z,21.40
2022-08-28T06:33:12.578Z,21.37
2022-08-28T06:34:12.571Z,21.50
2022-08-28T06:35:12.565Z,21.52
2022-08-28T06:36:12.562Z,21.58
2022-08-28T06:37:12.583Z,21.56
2022-08-28T06:38:12.748Z,21.52
2022-08-28T06:39:12.563Z,21.53
2022-08-28T06:40:12.606Z,21.58
2022-08-28T06:41:12.568Z,21.65
2022-08-28T06:42:12.573Z,21.64
2022-08-28T06:43:12.568Z,21.65
2022-08-28T06:44:12.560Z,21.59
2022-08-28T06:45:12.559Z,21.65
2022-08-28T06:46:12.613Z,21.64
2022-08-28T06:47:12.568Z,21.67
2022-08-28T06:48:12.837Z,21.71
2022-08-28T06:49:12.561Z,21.77
2022-08-28T06:50:12.566Z,21.80
2022-08-28T06:51:12.558Z,21.74
2022-08-28T06:52:12.549Z,21.77
2022-08-28T06:53:12.565Z,21.79
2022-08-28T06:54:12.555Z,21.80
2022-08-28T06:55:12.549Z,21.79
2022-08-28T06:56:13.701Z,21.77
2022-08-28T06:57:12.554Z,21.84
2022-08-28T06:58:12.755Z,21.79
2022-08-28T06:59:12.558Z,21.90
2022-08-28T07:00:12.561Z,21.82
2022-08-28T07:01:14.311Z,21.92
2022-08-28T07:02:12.725Z,21.92
2022-08-28T07:03:12.557Z,21.84
2022-08-28T07:04:12.552Z,21.92
2022-08-28T07:05:12.556Z,21.94
2022-08-28T07:06:12.569Z,21.90
2022-08-28T07:07:15.684Z,21.88
2022-08-28T07:08:12.638Z,22.00
2022-08-28T07:09:12.562Z,21.98
2022-08-28T07:10:12.554Z,21.98
2022-08-28T07:11:12.553Z,21.98
2022-08-28T07:12:12.545Z,21.90
2022-08-28T07:13:12.543Z,21.91
2022-08-28T07:14:12.544Z,21.99
2022-08-28T07:15:12.551Z,22.05
2022-08-28T07:16:12.603Z,21.99
2022-08-28T07:17:12.545Z,22.03
2022-08-28T07:18:12.736Z,21.98
2022-08-28T07:19:12.541Z,22.02
2022-08-28T07:20:12.553Z,21.99
2022-08-28T07:21:12.725Z,22.00
2022-08-28T07:22:12.542Z,21.98
2022-08-28T07:23:12.542Z,21.98
2022-08-28T07:24:12.540Z,22.02
2022-08-28T07:25:12.542Z,22.03
2022-08-28T07:26:12.538Z,22.02
2022-08-28T07:27:16.955Z,21.98
2022-08-28T07:28:12.659Z,22.09
2022-08-28T07:29:12.539Z,22.07
2022-08-28T07:30:12.542Z,22.09
2022-08-28T07:31:12.624Z,22.09
2022-08-28T07:32:12.540Z,22.02
2022-08-28T07:33:12.536Z,22.05
2022-08-28T07:34:12.553Z,22.07
2022-08-28T07:35:12.541Z,22.06
2022-08-28T07:36:16.053Z,22.03
2022-08-28T07:37:15.345Z,22.03
2022-08-28T07:38:12.775Z,22.05
2022-08-28T07:39:12.549Z,22.21
2022-08-28T07:40:12.614Z,22.20
2022-08-28T07:41:12.537Z,22.17
2022-08-28T07:42:12.531Z,22.24
2022-08-28T07:43:12.551Z,22.21
2022-08-28T07:44:12.535Z,22.21
2022-08-28T07:45:12.537Z,22.17
2022-08-28T07:46:12.657Z,22.20
2022-08-28T07:47:12.543Z,22.17
2022-08-28T07:48:12.981Z,22.18
2022-08-28T07:49:12.542Z,22.20
2022-08-28T07:50:12.534Z,22.24
2022-08-28T07:51:12.537Z,22.22
2022-08-28T07:52:12.541Z,22.24
2022-08-28T07:53:12.544Z,22.27
2022-08-28T07:54:15.509Z,22.28
2022-08-28T07:55:12.536Z,22.30
2022-08-28T07:56:12.532Z,22.28
2022-08-28T07:57:12.828Z,22.30
2022-08-28T07:58:12.705Z,22.31
2022-08-28T07:59:13.943Z,22.31
2022-08-28T08:00:12.542Z,22.37
2022-08-28T08:01:12.594Z,22.37
2022-08-28T08:02:12.555Z,22.35
2022-08-28T08:03:12.628Z,22.37
2022-08-28T08:04:12.540Z,22.40
2022-08-28T08:05:12.531Z,22.36
2022-08-28T08:06:12.536Z,22.43
2022-08-28T08:07:12.541Z,22.43
2022-08-28T08:08:12.751Z,22.39
2022-08-28T08:09:12.541Z,22.27
2022-08-28T08:10:12.538Z,22.27
2022-08-28T08:11:13.927Z,22.25
2022-08-28T08:12:12.536Z,22.17
2022-08-28T08:13:12.537Z,22.09
2022-08-28T08:14:12.541Z,21.96
2022-08-28T08:15:12.530Z,21.88
2022-08-28T08:16:12.613Z,21.99
2022-08-28T08:17:12.531Z,21.90
2022-08-28T08:18:12.696Z,21.77
2022-08-28T08:19:12.543Z,21.72
2022-08-28T08:20:12.530Z,21.68
2022-08-28T08:21:12.527Z,21.65
2022-08-28T08:22:12.526Z,21.68
2022-08-28T08:23:12.535Z,21.64
2022-08-28T08:24:12.525Z,21.61
2022-08-28T08:25:12.548Z,21.58
2022-08-28T08:26:12.522Z,21.58
2022-08-28T08:27:12.520Z,21.44
2022-08-28T08:28:12.799Z,21.43
2022-08-28T08:29:12.528Z,21.43
2022-08-28T08:30:12.513Z,21.42
2022-08-28T08:31:12.568Z,21.34
2022-08-28T08:32:12.514Z,21.40
2022-08-28T08:33:12.513Z,21.38
2022-08-28T08:34:12.503Z,21.34
2022-08-28T08:35:12.519Z,21.37
2022-08-28T08:36:12.507Z,21.43
2022-08-28T08:37:12.501Z,21.29
2022-08-28T08:38:12.501Z,21.37
2022-08-28T08:39:12.500Z,21.40
2022-08-28T08:40:12.562Z,21.34
2022-08-28T08:41:12.496Z,21.38
2022-08-28T08:42:12.493Z,21.37
2022-08-28T08:43:12.500Z,21.42
2022-08-28T08:44:12.492Z,21.34
2022-08-28T08:45:12.481Z,21.35
2022-08-28T08:46:12.563Z,21.47
2022-08-28T08:47:14.779Z,21.40
2022-08-28T08:48:12.564Z,21.44
2022-08-28T08:49:12.472Z,21.47
2022-08-28T08:50:12.474Z,21.58
2022-08-28T08:51:12.476Z,21.58
2022-08-28T08:52:12.545Z,21.59
2022-08-28T08:53:12.473Z,21.54
2022-08-28T08:54:12.497Z,21.53
2022-08-28T08:55:12.464Z,21.62
2022-08-28T08:56:12.469Z,21.62
2022-08-28T08:57:12.465Z,21.50
2022-08-28T08:58:12.653Z,21.47
2022-08-28T08:59:12.470Z,21.42
2022-08-28T09:00:15.958Z,21.37
2022-08-28T09:01:12.495Z,21.34
2022-08-28T09:02:12.462Z,21.34
2022-08-28T09:03:12.525Z,21.37
2022-08-28T09:04:15.809Z,21.34
2022-08-28T09:05:12.464Z,21.29
2022-08-28T09:06:12.454Z,21.29
2022-08-28T09:07:12.447Z,21.27
2022-08-28T09:08:12.653Z,21.29
2022-08-28T09:09:12.438Z,21.24
2022-08-28T09:10:12.442Z,21.25
2022-08-28T09:11:12.440Z,21.27
2022-08-28T09:12:12.431Z,21.24
2022-08-28T09:13:12.431Z,21.22
2022-08-28T09:14:12.433Z,21.19
2022-08-28T09:15:12.440Z,21.14
2022-08-28T09:16:12.526Z,21.21
2022-08-28T09:17:12.430Z,21.25
2022-08-28T09:18:12.634Z,21.25
2022-08-28T09:19:12.439Z,21.27
2022-08-28T09:20:12.490Z,21.25
2022-08-28T09:21:12.410Z,21.24
2022-08-28T09:22:12.408Z,21.19
2022-08-28T09:23:14.037Z,21.21
2022-08-28T09:24:12.403Z,21.17
2022-08-28T09:25:12.399Z,21.21
2022-08-28T09:26:12.618Z,21.29
2022-08-28T09:27:14.375Z,21.27
2022-08-28T09:28:12.577Z,21.25
2022-08-28T09:29:12.392Z,21.27
2022-08-28T09:30:12.388Z,21.24
2022-08-28T09:31:12.469Z,21.29
2022-08-28T09:32:12.384Z,21.29
2022-08-28T09:33:12.384Z,21.32
2022-08-28T09:34:12.390Z,21.25
2022-08-28T09:35:12.383Z,21.28
2022-08-28T09:36:12.385Z,21.27
2022-08-28T09:37:13.894Z,21.25
2022-08-28T09:38:12.532Z,21.25
2022-08-28T09:39:12.385Z,21.31
2022-08-28T09:40:12.496Z,21.32
2022-08-28T09:41:12.375Z,21.38
2022-08-28T09:42:12.367Z,21.42
2022-08-28T09:43:12.368Z,21.35
2022-08-28T09:44:12.363Z,21.34
2022-08-28T09:45:12.364Z,21.42
2022-08-28T09:46:12.393Z,21.40
2022-08-28T09:47:12.348Z,21.44
2022-08-28T09:48:12.596Z,21.42
2022-08-28T09:49:12.357Z,21.52
2022-08-28T09:50:12.345Z,21.43
2022-08-28T09:51:12.344Z,21.46
2022-08-28T09:52:12.344Z,21.40
2022-08-28T09:53:12.332Z,21.44
2022-08-28T09:54:12.342Z,21.47
2022-08-28T09:55:12.337Z,21.47
2022-08-28T09:56:12.331Z,21.43
2022-08-28T09:57:12.338Z,21.52
2022-08-28T09:58:12.569Z,21.37
2022-08-28T09:59:12.329Z,21.40
2022-08-28T10:00:12.325Z,21.43
2022-08-28T10:01:12.427Z,21.44
2022-08-28T10:02:12.396Z,21.53
2022-08-28T10:03:12.311Z,21.47
2022-08-28T10:04:12.372Z,21.54
2022-08-28T10:05:12.321Z,21.53
2022-08-28T10:06:12.318Z,21.58
2022-08-28T10:07:12.308Z,21.50
2022-08-28T10:08:12.426Z,21.65
2022-08-28T10:09:12.302Z,21.53
2022-08-28T10:10:12.308Z,21.56
2022-08-28T10:11:12.308Z,21.56
2022-08-28T10:12:12.307Z,21.54
2022-08-28T10:13:12.311Z,21.67
2022-08-28T10:14:12.308Z,21.64
2022-08-28T10:15:12.293Z,21.61
2022-08-28T10:16:12.367Z,21.64
2022-08-28T10:17:12.296Z,21.68
2022-08-28T10:18:12.582Z,21.59
2022-08-28T10:19:12.292Z,21.62
2022-08-28T10:20:12.303Z,21.67
2022-08-28T10:21:12.284Z,21.68
2022-08-28T10:22:12.280Z,21.71
2022-08-28T10:23:17.035Z,21.62
2022-08-28T10:24:12.290Z,21.65
2022-08-28T10:25:12.283Z,21.62
2022-08-28T10:26:12.278Z,21.72
2022-08-28T10:27:12.274Z,21.75
2022-08-28T10:28:12.519Z,21.71
2022-08-28T10:29:12.266Z,21.72
2022-08-28T10:30:13.477Z,21.71
2022-08-28T10:31:12.324Z,21.74
2022-08-28T10:32:12.268Z,21.79
2022-08-28T10:33:12.258Z,21.71
2022-08-28T10:34:12.258Z,21.75
2022-08-28T10:35:12.255Z,21.80
2022-08-28T10:36:21.158Z,21.80
2022-08-28T10:37:12.257Z,21.79
2022-08-28T10:38:12.476Z,21.80
2022-08-28T10:39:12.254Z,21.79
2022-08-28T10:40:12.293Z,21.83
2022-08-28T10:41:12.243Z,21.80
2022-08-28T10:42:12.252Z,21.84
2022-08-28T10:43:12.247Z,21.80
2022-08-28T10:44:12.252Z,21.82
2022-08-28T10:45:12.241Z,21.83
2022-08-28T10:46:12.323Z,21.72
2022-08-28T10:47:12.237Z,21.72
2022-08-28T10:48:12.406Z,21.86
2022-08-28T10:49:12.246Z,21.88
2022-08-28T10:50:12.226Z,21.90
2022-08-28T10:51:12.227Z,21.90
2022-08-28T10:52:12.230Z,21.88
2022-08-28T10:53:12.235Z,21.92
2022-08-28T10:54:12.225Z,21.83
2022-08-28T10:55:12.227Z,21.86
2022-08-28T10:56:12.224Z,21.90
2022-08-28T10:57:12.224Z,21.86
2022-08-28T10:58:24.613Z,21.99
2022-08-28T10:59:12.223Z,21.86
2022-08-28T11:00:12.223Z,21.94
2022-08-28T11:01:12.307Z,21.96
2022-08-28T11:02:12.299Z,21.86
2022-08-28T11:03:32.942Z,21.96
2022-08-28T11:04:12.215Z,21.92
2022-08-28T11:05:12.207Z,22.00
2022-08-28T11:06:12.205Z,21.96
2022-08-28T11:07:12.205Z,22.02
2022-08-28T11:08:12.406Z,22.03
2022-08-28T11:09:12.200Z,21.98
2022-08-28T11:10:12.203Z,22.00
2022-08-28T11:11:12.191Z,22.00
2022-08-28T11:12:12.197Z,22.06
2022-08-28T11:13:12.462Z,22.03
2022-08-28T11:14:12.203Z,21.96
2022-08-28T11:15:12.186Z,22.02
2022-08-28T11:16:12.198Z,22.00
2022-08-28T11:17:14.375Z,21.94
2022-08-28T11:18:12.211Z,22.10
2022-08-28T11:19:12.178Z,22.06
2022-08-28T11:20:12.180Z,22.09
2022-08-28T11:21:12.185Z,22.09
2022-08-28T11:22:12.182Z,22.02
2022-08-28T11:23:12.410Z,22.14
2022-08-28T11:24:12.178Z,22.09
2022-08-28T11:25:12.182Z,22.14
2022-08-28T11:26:12.187Z,22.20
2022-08-28T11:27:12.166Z,22.22
2022-08-28T11:28:12.172Z,22.21
2022-08-28T11:29:12.169Z,22.20
2022-08-28T11:30:12.166Z,22.20
2022-08-28T11:31:19.105Z,22.21
2022-08-28T11:32:12.172Z,22.20
2022-08-28T11:33:12.398Z,22.28
2022-08-28T11:34:12.167Z,22.22
2022-08-28T11:35:12.162Z,22.27
2022-08-28T11:36:12.164Z,22.27
2022-08-28T11:37:12.162Z,22.27
2022-08-28T11:38:12.165Z,22.27
2022-08-28T11:39:12.158Z,22.25
2022-08-28T11:40:12.190Z,22.33
2022-08-28T11:41:12.168Z,22.35
2022-08-28T11:42:12.158Z,22.27
2022-08-28T11:43:12.281Z,22.24
2022-08-28T11:44:12.160Z,22.28
2022-08-28T11:45:12.143Z,22.21
2022-08-28T11:46:12.221Z,22.31
2022-08-28T11:47:12.147Z,22.24
2022-08-28T11:48:12.153Z,22.30
2022-08-28T11:49:12.141Z,22.27
2022-08-28T11:50:12.152Z,22.28
2022-08-28T11:51:12.147Z,22.25
2022-08-28T11:52:12.147Z,22.30
2022-08-28T11:53:12.284Z,22.35
2022-08-28T11:54:12.143Z,22.28
2022-08-28T11:55:12.155Z,22.40
2022-08-28T11:56:12.139Z,22.37
2022-08-28T11:57:12.146Z,22.37
2022-08-28T11:58:13.228Z,22.39
2022-08-28T11:59:12.165Z,22.42
2022-08-28T12:00:12.131Z,22.39
2022-08-28T12:01:12.139Z,22.42
2022-08-28T12:02:12.161Z,22.36
2022-08-28T12:03:12.342Z,22.45
2022-08-28T12:04:12.190Z,22.43
2022-08-28T12:05:12.135Z,22.46
2022-08-28T12:06:12.127Z,22.47
2022-08-28T12:07:12.127Z,22.40
2022-08-28T12:08:12.139Z,22.45
2022-08-28T12:09:12.133Z,22.43
2022-08-28T12:10:12.146Z,22.45
2022-08-28T12:11:12.124Z,22.43
2022-08-28T12:12:12.119Z,22.45
2022-08-28T12:13:12.213Z,22.46
2022-08-28T12:14:12.118Z,22.46
2022-08-28T12:15:12.113Z,22.46
2022-08-28T12:16:12.171Z,22.43
2022-08-28T12:17:12.133Z,22.46
2022-08-28T12:18:12.111Z,22.43
2022-08-28T12:19:12.117Z,22.39
2022-08-28T12:20:12.115Z,22.45
2022-08-28T12:21:12.104Z,22.47
2022-08-28T12:22:12.108Z,22.39
2022-08-28T12:23:12.247Z,22.39
2022-08-28T12:24:14.688Z,22.57
2022-08-28T12:25:12.107Z,22.45
2022-08-28T12:26:12.098Z,22.54
2022-08-28T12:27:12.097Z,22.57
2022-08-28T12:28:13.147Z,22.57
2022-08-28T12:29:12.098Z,22.58
2022-08-28T12:30:12.101Z,22.52
2022-08-28T12:31:12.191Z,22.58
2022-08-28T12:32:12.094Z,22.57
2022-08-28T12:33:12.339Z,22.58
2022-08-28T12:34:12.093Z,22.54
2022-08-28T12:35:12.092Z,22.67
2022-08-28T12:36:12.105Z,22.61
2022-08-28T12:37:12.097Z,22.64
2022-08-28T12:38:12.091Z,22.60
2022-08-28T12:39:12.091Z,22.58
2022-08-28T12:40:12.163Z,22.55
2022-08-28T12:41:12.087Z,22.57
2022-08-28T12:42:12.106Z,22.67
2022-08-28T12:43:15.356Z,22.65
2022-08-28T12:44:12.095Z,22.61
2022-08-28T12:45:12.087Z,22.60
2022-08-28T12:46:18.945Z,22.55
2022-08-28T12:47:12.093Z,22.57
2022-08-28T12:48:12.081Z,22.55
2022-08-28T12:49:12.077Z,22.68
2022-08-28T12:50:12.301Z,22.62
2022-08-28T12:51:12.086Z,22.57
2022-08-28T12:52:12.081Z,22.67
2022-08-28T12:53:12.264Z,22.68
2022-08-28T12:54:12.070Z,22.60
2022-08-28T12:55:12.074Z,22.65
2022-08-28T12:56:12.077Z,22.70